sensor_id;sensor_type;location;lat;lon;timestamp;pressure;altitude;pressure_sealevel;temperature;humidity
53719;BME280;39616;48.872;9.390;2023-04-05T00:02:17;98924.09;;;-0.87;74.69
53719;BME280;39616;48.872;9.390;2023-04-05T00:04:48;98928.38;;;-0.86;75.30
53719;BME280;39616;48.872;9.390;2023-04-05T00:07:26;98923.28;;;-0.87;75.32
53719;BME280;39616;48.872;9.390;2023-04-05T00:09:57;98920.00;;;-0.96;73.98
53719;BME280;39616;48.872;9.390;2023-04-05T00:12:27;98925.16;;;-1.01;74.87
53719;BME280;39616;48.872;9.390;2023-04-05T00:14:57;98918.78;;;-1.00;74.51
53719;BME280;39616;48.872;9.390;2023-04-05T00:17:28;98909.34;;;-0.96;75.44
53719;BME280;39616;48.872;9.390;2023-04-05T00:20:00;98915.31;;;-0.94;76.70
53719;BME280;39616;48.872;9.390;2023-04-05T00:22:31;98907.53;;;-0.95;75.78
53719;BME280;39616;48.872;9.390;2023-04-05T00:25:05;98915.13;;;-0.99;75.20
53719;BME280;39616;48.872;9.390;2023-04-05T00:27:35;98904.66;;;-1.07;74.42
53719;BME280;39616;48.872;9.390;2023-04-05T00:30:06;98899.97;;;-1.12;73.91
53719;BME280;39616;48.872;9.390;2023-04-05T00:32:36;98903.03;;;-1.15;74.53
53719;BME280;39616;48.872;9.390;2023-04-05T00:35:07;98895.28;;;-1.16;74.42
53719;BME280;39616;48.872;9.390;2023-04-05T00:37:37;98895.28;;;-1.16;75.53
53719;BME280;39616;48.872;9.390;2023-04-05T00:40:08;98886.66;;;-1.18;75.80
53719;BME280;39616;48.872;9.390;2023-04-05T00:42:39;98900.19;;;-1.20;75.92
53719;BME280;39616;48.872;9.390;2023-04-05T00:45:10;98890.97;;;-1.24;75.57
53719;BME280;39616;48.872;9.390;2023-04-05T00:47:41;98894.69;;;-1.25;75.73
53719;BME280;39616;48.872;9.390;2023-04-05T00:50:11;98886.28;;;-1.29;76.16
53719;BME280;39616;48.872;9.390;2023-04-05T00:52:42;98889.94;;;-1.30;77.15
53719;BME280;39616;48.872;9.390;2023-04-05T00:55:13;98885.47;;;-1.42;75.54
53719;BME280;39616;48.872;9.390;2023-04-05T00:57:43;98886.69;;;-1.52;75.82
53719;BME280;39616;48.872;9.390;2023-04-05T01:00:14;98882.63;;;-1.54;75.27
53719;BME280;39616;48.872;9.390;2023-04-05T01:02:48;98870.75;;;-1.58;75.85
53719;BME280;39616;48.872;9.390;2023-04-05T01:08:34;98873.81;;;-1.61;77.22
53719;BME280;39616;48.872;9.390;2023-04-05T01:11:09;98866.63;;;-1.67;77.91
53719;BME280;39616;48.872;9.390;2023-04-05T01:13:44;98866.63;;;-1.67;78.03
53719;BME280;39616;48.872;9.390;2023-04-05T01:16:14;98863.16;;;-1.68;77.21
53719;BME280;39616;48.872;9.390;2023-04-05T01:18:45;98857.63;;;-1.66;77.43
53719;BME280;39616;48.872;9.390;2023-04-05T01:24:12;98850.69;;;-1.67;77.10
53719;BME280;39616;48.872;9.390;2023-04-05T01:26:56;98854.38;;;-1.68;77.29
53719;BME280;39616;48.872;9.390;2023-04-05T01:29:55;98848.44;;;-1.71;76.91
53719;BME280;39616;48.872;9.390;2023-04-05T01:35:20;98827.16;;;-1.77;76.95
53719;BME280;39616;48.872;9.390;2023-04-05T01:37:56;98835.34;;;-1.79;77.17
53719;BME280;39616;48.872;9.390;2023-04-05T01:40:29;98840.47;;;-1.84;77.25
53719;BME280;39616;48.872;9.390;2023-04-05T01:43:00;98836.16;;;-1.85;77.36
53719;BME280;39616;48.872;9.390;2023-04-05T01:45:32;98835.16;;;-1.84;76.90
53719;BME280;39616;48.872;9.390;2023-04-05T01:48:02;98837.19;;;-1.79;77.10
53719;BME280;39616;48.872;9.390;2023-04-05T01:50:32;98835.13;;;-1.77;76.42
53719;BME280;39616;48.872;9.390;2023-04-05T01:53:03;98833.91;;;-1.75;76.43
53719;BME280;39616;48.872;9.390;2023-04-05T01:55:33;98844.13;;;-1.72;76.07
53719;BME280;39616;48.872;9.390;2023-04-05T01:58:03;98834.53;;;-1.73;75.69
53719;BME280;39616;48.872;9.390;2023-04-05T02:00:34;98829.63;;;-1.76;75.82
53719;BME280;39616;48.872;9.390;2023-04-05T02:03:04;98831.03;;;-1.73;77.06
53719;BME280;39616;48.872;9.390;2023-04-05T02:05:34;98826.34;;;-1.64;77.89
53719;BME280;39616;48.872;9.390;2023-04-05T02:08:05;98831.03;;;-1.60;76.99
53719;BME280;39616;48.872;9.390;2023-04-05T02:10:35;98823.88;;;-1.53;78.94
53719;BME280;39616;48.872;9.390;2023-04-05T02:13:05;98827.34;;;-1.59;78.53
53719;BME280;39616;48.872;9.390;2023-04-05T02:15:36;98829.00;;;-1.64;77.60
53719;BME280;39616;48.872;9.390;2023-04-05T02:18:06;98828.38;;;-1.73;77.68
53719;BME280;39616;48.872;9.390;2023-04-05T02:20:38;98822.84;;;-1.78;77.23
53719;BME280;39616;48.872;9.390;2023-04-05T02:23:08;98824.28;;;-1.82;77.35
53719;BME280;39616;48.872;9.390;2023-04-05T02:25:38;98829.19;;;-1.86;77.27
53719;BME280;39616;48.872;9.390;2023-04-05T02:28:09;98821.03;;;-1.91;79.35
53719;BME280;39616;48.872;9.390;2023-04-05T02:30:39;98822.66;;;-1.97;78.39
53719;BME280;39616;48.872;9.390;2023-04-05T02:33:10;98823.25;;;-2.01;79.25
53719;BME280;39616;48.872;9.390;2023-04-05T02:35:40;98826.53;;;-2.12;79.56
53719;BME280;39616;48.872;9.390;2023-04-05T02:38:10;98810.97;;;-2.15;80.40
53719;BME280;39616;48.872;9.390;2023-04-05T02:40:40;98824.06;;;-2.21;79.98
53719;BME280;39616;48.872;9.390;2023-04-05T02:43:11;98815.25;;;-2.28;79.64
53719;BME280;39616;48.872;9.390;2023-04-05T02:45:41;98815.00;;;-2.39;79.98
53719;BME280;39616;48.872;9.390;2023-04-05T02:48:11;98818.50;;;-2.39;81.74
53719;BME280;39616;48.872;9.390;2023-04-05T02:50:47;98822.56;;;-2.43;81.26
53719;BME280;39616;48.872;9.390;2023-04-05T02:53:18;98812.75;;;-2.49;80.73
53719;BME280;39616;48.872;9.390;2023-04-05T02:55:55;98814.78;;;-2.51;81.06
53719;BME280;39616;48.872;9.390;2023-04-05T02:58:26;98821.69;;;-2.63;80.98
53719;BME280;39616;48.872;9.390;2023-04-05T03:00:58;98813.91;;;-2.72;81.74
53719;BME280;39616;48.872;9.390;2023-04-05T03:03:30;98817.56;;;-2.73;81.49
53719;BME280;39616;48.872;9.390;2023-04-05T03:06:03;98807.97;;;-2.74;81.64
53719;BME280;39616;48.872;9.390;2023-04-05T03:08:41;98804.28;;;-2.79;81.73
53719;BME280;39616;48.872;9.390;2023-04-05T03:11:15;98816.13;;;-2.82;82.23
53719;BME280;39616;48.872;9.390;2023-04-05T03:13:45;98808.75;;;-2.86;83.33
53719;BME280;39616;48.872;9.390;2023-04-05T03:16:16;98806.69;;;-2.84;83.16
53719;BME280;39616;48.872;9.390;2023-04-05T03:18:46;98813.66;;;-2.83;83.00
53719;BME280;39616;48.872;9.390;2023-04-05T03:21:16;98809.78;;;-2.81;82.97
53719;BME280;39616;48.872;9.390;2023-04-05T03:23:47;98812.88;;;-2.71;84.73
53719;BME280;39616;48.872;9.390;2023-04-05T03:26:17;98804.50;;;-2.74;83.29
53719;BME280;39616;48.872;9.390;2023-04-05T03:28:47;98809.97;;;-2.89;82.86
53719;BME280;39616;48.872;9.390;2023-04-05T03:31:18;98808.50;;;-2.92;82.51
53719;BME280;39616;48.872;9.390;2023-04-05T03:33:48;98810.47;;;-3.07;83.15
53719;BME280;39616;48.872;9.390;2023-04-05T03:36:18;98799.03;;;-3.14;84.40
53719;BME280;39616;48.872;9.390;2023-04-05T03:38:48;98803.28;;;-3.20;84.73
53719;BME280;39616;48.872;9.390;2023-04-05T03:41:20;98797.56;;;-3.23;85.20
53719;BME280;39616;48.872;9.390;2023-04-05T03:43:51;98804.06;;;-3.26;85.45
53719;BME280;39616;48.872;9.390;2023-04-05T03:46:21;98803.84;;;-3.24;85.40
53719;BME280;39616;48.872;9.390;2023-04-05T03:48:51;98807.34;;;-3.24;85.76
53719;BME280;39616;48.872;9.390;2023-04-05T03:51:22;98802.06;;;-3.24;86.60
53719;BME280;39616;48.872;9.390;2023-04-05T03:53:52;98806.13;;;-3.21;87.63
53719;BME280;39616;48.872;9.390;2023-04-05T03:56:23;98813.47;;;-3.23;85.88
53719;BME280;39616;48.872;9.390;2023-04-05T03:58:54;98806.34;;;-3.23;86.19
53719;BME280;39616;48.872;9.390;2023-04-05T04:01:25;98807.53;;;-3.25;86.08
53719;BME280;39616;48.872;9.390;2023-04-05T04:03:56;98806.06;;;-3.28;86.14
53719;BME280;39616;48.872;9.390;2023-04-05T04:06:26;98808.34;;;-3.31;85.91
53719;BME280;39616;48.872;9.390;2023-04-05T04:08:56;98813.63;;;-3.31;86.29
53719;BME280;39616;48.872;9.390;2023-04-05T04:11:27;98810.94;;;-3.38;86.10
53719;BME280;39616;48.872;9.390;2023-04-05T04:13:57;98807.22;;;-3.44;86.65
53719;BME280;39616;48.872;9.390;2023-04-05T04:16:27;98811.31;;;-3.41;86.87
53719;BME280;39616;48.872;9.390;2023-04-05T04:18:57;98810.25;;;-3.47;86.90
53719;BME280;39616;48.872;9.390;2023-04-05T04:21:28;98801.25;;;-3.52;87.22
53719;BME280;39616;48.872;9.390;2023-04-05T04:24:01;98814.50;;;-3.52;87.52
53719;BME280;39616;48.872;9.390;2023-04-05T04:26:32;98815.34;;;-3.52;86.88
53719;BME280;39616;48.872;9.390;2023-04-05T04:29:06;98807.75;;;-3.55;87.56
53719;BME280;39616;48.872;9.390;2023-04-05T04:31:36;98815.66;;;-3.61;87.68
53719;BME280;39616;48.872;9.390;2023-04-05T04:34:07;98809.75;;;-3.63;88.28
53719;BME280;39616;48.872;9.390;2023-04-05T04:36:39;98813.38;;;-3.65;88.30
53719;BME280;39616;48.872;9.390;2023-04-05T04:39:12;98813.59;;;-3.66;88.47
53719;BME280;39616;48.872;9.390;2023-04-05T04:41:44;98813.59;;;-3.66;88.48
53719;BME280;39616;48.872;9.390;2023-04-05T04:44:16;98810.13;;;-3.67;88.38
53719;BME280;39616;48.872;9.390;2023-04-05T04:46:46;98804.38;;;-3.70;88.55
53719;BME280;39616;48.872;9.390;2023-04-05T04:49:16;98813.38;;;-3.71;88.90
53719;BME280;39616;48.872;9.390;2023-04-05T04:51:47;98810.13;;;-3.67;89.02
53719;BME280;39616;48.872;9.390;2023-04-05T04:54:18;98815.22;;;-3.65;88.65
53719;BME280;39616;48.872;9.390;2023-04-05T04:56:49;98807.72;;;-3.61;89.15
53719;BME280;39616;48.872;9.390;2023-04-05T04:59:20;98809.53;;;-3.62;88.85
53719;BME280;39616;48.872;9.390;2023-04-05T05:01:50;98809.09;;;-3.66;88.45
53719;BME280;39616;48.872;9.390;2023-04-05T05:04:21;98808.88;;;-3.71;89.32
53719;BME280;39616;48.872;9.390;2023-04-05T05:06:52;98810.50;;;-3.70;88.54
53719;BME280;39616;48.872;9.390;2023-04-05T05:09:23;98819.22;;;-3.76;89.36
53719;BME280;39616;48.872;9.390;2023-04-05T05:11:53;98811.28;;;-3.76;89.81
53719;BME280;39616;48.872;9.390;2023-04-05T05:14:25;98820.44;;;-3.78;89.53
53719;BME280;39616;48.872;9.390;2023-04-05T05:16:56;98822.72;;;-3.75;88.92
53719;BME280;39616;48.872;9.390;2023-04-05T05:19:28;98824.72;;;-3.77;89.02
53719;BME280;39616;48.872;9.390;2023-04-05T05:21:58;98818.41;;;-3.76;89.65
53719;BME280;39616;48.872;9.390;2023-04-05T05:24:28;98817.06;;;-3.66;90.89
53719;BME280;39616;48.872;9.390;2023-04-05T05:26:59;98820.16;;;-3.62;89.98
53719;BME280;39616;48.872;9.390;2023-04-05T05:29:29;98817.53;;;-3.55;88.92
53719;BME280;39616;48.872;9.390;2023-04-05T05:31:59;98817.59;;;-3.49;89.51
53719;BME280;39616;48.872;9.390;2023-04-05T05:34:30;98821.78;;;-3.33;90.59
53719;BME280;39616;48.872;9.390;2023-04-05T05:37:00;98821.59;;;-3.25;88.69
53719;BME280;39616;48.872;9.390;2023-04-05T05:39:31;98816.34;;;-3.18;88.64
53719;BME280;39616;48.872;9.390;2023-04-05T05:42:01;98814.81;;;-2.99;88.56
53719;BME280;39616;48.872;9.390;2023-04-05T05:44:32;98815.69;;;-2.85;87.02
53719;BME280;39616;48.872;9.390;2023-04-05T05:47:03;98824.72;;;-2.80;85.90
53719;BME280;39616;48.872;9.390;2023-04-05T05:49:33;98817.56;;;-2.73;85.14
53719;BME280;39616;48.872;9.390;2023-04-05T05:52:03;98817.78;;;-2.74;85.10
53719;BME280;39616;48.872;9.390;2023-04-05T05:54:34;98813.69;;;-2.70;85.42
53719;BME280;39616;48.872;9.390;2023-04-05T05:57:05;98823.53;;;-2.64;85.67
53719;BME280;39616;48.872;9.390;2023-04-05T05:59:35;98820.50;;;-2.54;85.25
53719;BME280;39616;48.872;9.390;2023-04-05T06:02:06;98825.63;;;-2.46;84.50
53719;BME280;39616;48.872;9.390;2023-04-05T06:04:36;98821.78;;;-2.30;84.94
53719;BME280;39616;48.872;9.390;2023-04-05T06:07:06;98817.91;;;-2.14;84.17
53719;BME280;39616;48.872;9.390;2023-04-05T06:09:37;98815.50;;;-1.96;84.31
53719;BME280;39616;48.872;9.390;2023-04-05T06:12:07;98813.84;;;-1.77;83.45
53719;BME280;39616;48.872;9.390;2023-04-05T06:14:38;98813.47;;;-1.61;82.17
53719;BME280;39616;48.872;9.390;2023-04-05T06:17:08;98811.78;;;-1.49;81.41
53719;BME280;39616;48.872;9.390;2023-04-05T06:19:38;98820.19;;;-1.38;81.09
53719;BME280;39616;48.872;9.390;2023-04-05T06:22:09;98819.72;;;-1.22;80.20
53719;BME280;39616;48.872;9.390;2023-04-05T06:24:39;98825.59;;;-1.00;79.68
53719;BME280;39616;48.872;9.390;2023-04-05T06:27:09;98811.47;;;-1.01;78.61
53719;BME280;39616;48.872;9.390;2023-04-05T06:29:40;98816.16;;;-0.89;78.31
53719;BME280;39616;48.872;9.390;2023-04-05T06:32:10;98817.34;;;-0.79;77.62
53719;BME280;39616;48.872;9.390;2023-04-05T06:34:40;98824.22;;;-0.58;77.41
53719;BME280;39616;48.872;9.390;2023-04-05T06:37:11;98816.22;;;-0.51;76.05
53719;BME280;39616;48.872;9.390;2023-04-05T06:39:41;98817.09;;;-0.26;76.13
53719;BME280;39616;48.872;9.390;2023-04-05T06:42:11;98813.22;;;0.02;74.41
53719;BME280;39616;48.872;9.390;2023-04-05T06:44:42;98817.47;;;0.35;74.21
53719;BME280;39616;48.872;9.390;2023-04-05T06:47:12;98824.88;;;0.33;72.00
53719;BME280;39616;48.872;9.390;2023-04-05T06:49:43;98811.53;;;0.58;71.90
53719;BME280;39616;48.872;9.390;2023-04-05T06:52:13;98812.25;;;0.90;70.23
53719;BME280;39616;48.872;9.390;2023-04-05T06:54:43;98806.59;;;1.16;69.95
53719;BME280;39616;48.872;9.390;2023-04-05T06:57:13;98804.78;;;1.29;68.36
53719;BME280;39616;48.872;9.390;2023-04-05T06:59:44;98808.16;;;1.54;67.82
53719;BME280;39616;48.872;9.390;2023-04-05T07:02:15;98805.69;;;1.71;66.22
53719;BME280;39616;48.872;9.390;2023-04-05T07:04:45;98809.22;;;2.25;65.64
53719;BME280;39616;48.872;9.390;2023-04-05T07:07:16;98800.72;;;2.63;64.12
53719;BME280;39616;48.872;9.390;2023-04-05T07:09:46;98802.69;;;2.80;62.57
53719;BME280;39616;48.872;9.390;2023-04-05T07:12:17;98816.56;;;2.53;62.54
53719;BME280;39616;48.872;9.390;2023-04-05T07:14:47;98814.81;;;2.47;63.12
53719;BME280;39616;48.872;9.390;2023-04-05T07:17:17;98810.38;;;2.64;62.64
53719;BME280;39616;48.872;9.390;2023-04-05T07:19:47;98818.66;;;2.51;62.52
53719;BME280;39616;48.872;9.390;2023-04-05T07:22:18;98817.75;;;2.69;61.69
53719;BME280;39616;48.872;9.390;2023-04-05T07:24:48;98809.00;;;2.85;62.08
53719;BME280;39616;48.872;9.390;2023-04-05T07:27:18;98815.22;;;3.26;61.59
53719;BME280;39616;48.872;9.390;2023-04-05T07:29:49;98805.81;;;3.52;60.71
53719;BME280;39616;48.872;9.390;2023-04-05T07:32:19;98808.22;;;3.25;60.48
53719;BME280;39616;48.872;9.390;2023-04-05T07:34:49;98805.50;;;3.37;60.41
53719;BME280;39616;48.872;9.390;2023-04-05T07:37:20;98813.28;;;3.79;59.50
53719;BME280;39616;48.872;9.390;2023-04-05T07:39:50;98802.44;;;4.02;57.57
53719;BME280;39616;48.872;9.390;2023-04-05T07:42:20;98802.59;;;3.96;57.42
53719;BME280;39616;48.872;9.390;2023-04-05T07:44:51;98798.25;;;3.78;59.48
53719;BME280;39616;48.872;9.390;2023-04-05T07:47:21;98802.53;;;4.07;58.24
53719;BME280;39616;48.872;9.390;2023-04-05T07:49:51;98803.09;;;4.09;57.75
53719;BME280;39616;48.872;9.390;2023-04-05T07:52:21;98799.69;;;4.48;56.48
53719;BME280;39616;48.872;9.390;2023-04-05T07:54:52;98800.59;;;4.53;56.79
53719;BME280;39616;48.872;9.390;2023-04-05T07:57:23;98792.00;;;4.73;55.04
53719;BME280;39616;48.872;9.390;2023-04-05T07:59:53;98805.25;;;5.41;53.41
53719;BME280;39616;48.872;9.390;2023-04-05T08:02:24;98807.94;;;5.19;52.24
53719;BME280;39616;48.872;9.390;2023-04-05T08:04:55;98806.53;;;5.82;51.88
53719;BME280;39616;48.872;9.390;2023-04-05T08:07:25;98803.50;;;6.27;51.87
53719;BME280;39616;48.872;9.390;2023-04-05T08:09:55;98798.56;;;6.19;48.34
53719;BME280;39616;48.872;9.390;2023-04-05T08:12:29;98799.13;;;6.59;48.32
53719;BME280;39616;48.872;9.390;2023-04-05T08:15:00;98791.31;;;6.52;50.41
53719;BME280;39616;48.872;9.390;2023-04-05T08:17:30;98796.00;;;6.67;49.31
53719;BME280;39616;48.872;9.390;2023-04-05T08:20:01;98786.94;;;7.41;47.59
53719;BME280;39616;48.872;9.390;2023-04-05T08:22:31;98785.44;;;7.13;46.60
53719;BME280;39616;48.872;9.390;2023-04-05T08:25:01;98793.59;;;7.28;48.78
53719;BME280;39616;48.872;9.390;2023-04-05T08:27:31;98783.53;;;7.81;48.03
53719;BME280;39616;48.872;9.390;2023-04-05T08:30:02;98784.66;;;8.21;45.49
53719;BME280;39616;48.872;9.390;2023-04-05T08:32:34;98781.16;;;8.66;43.69
53719;BME280;39616;48.872;9.390;2023-04-05T08:35:04;98778.19;;;8.63;42.54
53719;BME280;39616;48.872;9.390;2023-04-05T08:37:35;98777.41;;;8.42;41.80
53719;BME280;39616;48.872;9.390;2023-04-05T08:40:06;98772.75;;;8.83;40.41
53719;BME280;39616;48.872;9.390;2023-04-05T08:42:41;98786.88;;;9.45;39.13
53719;BME280;39616;48.872;9.390;2023-04-05T08:45:16;98778.91;;;9.04;39.67
53719;BME280;39616;48.872;9.390;2023-04-05T08:47:48;98783.22;;;9.21;38.52
53719;BME280;39616;48.872;9.390;2023-04-05T08:50:21;98779.06;;;9.38;39.26
53719;BME280;39616;48.872;9.390;2023-04-05T08:52:53;98782.25;;;9.51;38.46
53719;BME280;39616;48.872;9.390;2023-04-05T08:55:24;98786.28;;;8.68;38.13
53719;BME280;39616;48.872;9.390;2023-04-05T08:57:57;98777.06;;;9.59;37.32
53719;BME280;39616;48.872;9.390;2023-04-05T09:00:29;98778.56;;;9.26;37.13
53719;BME280;39616;48.872;9.390;2023-04-05T09:03:02;98783.09;;;9.41;37.70
53719;BME280;39616;48.872;9.390;2023-04-05T09:05:35;98784.44;;;9.49;36.18
53719;BME280;39616;48.872;9.390;2023-04-05T09:08:06;98785.34;;;10.23;37.03
53719;BME280;39616;48.872;9.390;2023-04-05T09:10:36;98778.69;;;10.44;35.73
53719;BME280;39616;48.872;9.390;2023-04-05T09:13:07;98778.00;;;10.28;34.34
53719;BME280;39616;48.872;9.390;2023-04-05T09:15:38;98780.22;;;10.16;35.27
53719;BME280;39616;48.872;9.390;2023-04-05T09:18:09;98777.56;;;10.50;35.47
53719;BME280;39616;48.872;9.390;2023-04-05T09:20:40;98776.38;;;10.91;36.75
53719;BME280;39616;48.872;9.390;2023-04-05T09:23:10;98765.56;;;11.09;35.30
53719;BME280;39616;48.872;9.390;2023-04-05T09:25:40;98765.06;;;10.78;36.01
53719;BME280;39616;48.872;9.390;2023-04-05T09:28:11;98769.25;;;10.95;36.82
53719;BME280;39616;48.872;9.390;2023-04-05T09:30:45;98768.31;;;11.04;35.46
53719;BME280;39616;48.872;9.390;2023-04-05T09:33:18;98767.50;;;11.71;36.07
53719;BME280;39616;48.872;9.390;2023-04-05T09:35:49;98766.00;;;11.83;35.94
53719;BME280;39616;48.872;9.390;2023-04-05T09:38:41;98761.38;;;11.84;36.09
53719;BME280;39616;48.872;9.390;2023-04-05T09:41:11;98764.16;;;11.36;36.60
53719;BME280;39616;48.872;9.390;2023-04-05T09:43:41;98759.34;;;11.71;35.18
53719;BME280;39616;48.872;9.390;2023-04-05T09:46:28;98759.63;;;11.50;34.84
53719;BME280;39616;48.872;9.390;2023-04-05T09:48:59;98768.59;;;9.76;37.00
53719;BME280;39616;48.872;9.390;2023-04-05T09:51:36;98760.94;;;10.23;37.02
53719;BME280;39616;48.872;9.390;2023-04-05T09:54:09;98754.38;;;11.78;36.59
53719;BME280;39616;48.872;9.390;2023-04-05T09:56:52;98767.03;;;10.44;37.32
53719;BME280;39616;48.872;9.390;2023-04-05T09:59:23;98760.47;;;9.76;37.36
53719;BME280;39616;48.872;9.390;2023-04-05T10:01:53;98767.38;;;9.48;38.71
53719;BME280;39616;48.872;9.390;2023-04-05T10:04:24;98763.06;;;9.42;39.21
53719;BME280;39616;48.872;9.390;2023-04-05T10:06:54;98756.81;;;8.61;39.44
53719;BME280;39616;48.872;9.390;2023-04-05T10:09:25;98753.06;;;8.42;41.06
53719;BME280;39616;48.872;9.390;2023-04-05T10:11:55;98749.00;;;8.39;40.79
53719;BME280;39616;48.872;9.390;2023-04-05T10:14:26;98745.19;;;8.81;41.00
53719;BME280;39616;48.872;9.390;2023-04-05T10:17:09;98746.03;;;9.91;39.91
53719;BME280;39616;48.872;9.390;2023-04-05T10:20:18;98745.22;;;9.41;38.97
53719;BME280;39616;48.872;9.390;2023-04-05T10:28:33;98744.28;;;9.01;39.03
53719;BME280;39616;48.872;9.390;2023-04-05T10:31:13;98735.06;;;9.17;39.31
53719;BME280;39616;48.872;9.390;2023-04-05T10:33:54;98730.44;;;9.67;38.26
53719;BME280;39616;48.872;9.390;2023-04-05T10:36:49;98730.88;;;9.85;38.33
53719;BME280;39616;48.872;9.390;2023-04-05T10:39:33;98730.94;;;9.80;37.60
53719;BME280;39616;48.872;9.390;2023-04-05T10:42:19;98734.69;;;8.49;39.27
53719;BME280;39616;48.872;9.390;2023-04-05T10:44:58;98734.13;;;8.32;40.54
53719;BME280;39616;48.872;9.390;2023-04-05T10:47:37;98738.22;;;8.14;40.91
53719;BME280;39616;48.872;9.390;2023-04-05T10:50:11;98727.41;;;8.55;39.67
53719;BME280;39616;48.872;9.390;2023-04-05T10:52:45;98731.03;;;9.05;39.47
53719;BME280;39616;48.872;9.390;2023-04-05T10:55:16;98733.25;;;9.52;38.61
53719;BME280;39616;48.872;9.390;2023-04-05T10:57:47;98723.66;;;10.44;37.60
53719;BME280;39616;48.872;9.390;2023-04-05T11:00:19;98718.31;;;10.62;37.60
53719;BME280;39616;48.872;9.390;2023-04-05T11:02:54;98723.06;;;9.78;37.11
53719;BME280;39616;48.872;9.390;2023-04-05T11:05:33;98717.13;;;10.45;38.81
53719;BME280;39616;48.872;9.390;2023-04-05T11:08:07;98716.63;;;10.43;38.38
53719;BME280;39616;48.872;9.390;2023-04-05T11:10:38;98713.06;;;11.19;36.74
53719;BME280;39616;48.872;9.390;2023-04-05T11:13:09;98710.81;;;10.78;35.78
53719;BME280;39616;48.872;9.390;2023-04-05T11:15:40;98706.09;;;11.13;36.81
53719;BME280;39616;48.872;9.390;2023-04-05T11:18:20;98708.66;;;9.88;36.57
53719;BME280;39616;48.872;9.390;2023-04-05T11:20:52;98703.22;;;9.49;37.01
53719;BME280;39616;48.872;9.390;2023-04-05T11:23:25;98703.41;;;9.62;37.12
53719;BME280;39616;48.872;9.390;2023-04-05T11:26:03;98703.53;;;9.42;37.49
53719;BME280;39616;48.872;9.390;2023-04-05T11:28:39;98697.84;;;9.83;37.49
53719;BME280;39616;48.872;9.390;2023-04-05T11:31:18;98696.03;;;9.68;36.93
53719;BME280;39616;48.872;9.390;2023-04-05T11:36:35;98689.06;;;10.30;36.32
53719;BME280;39616;48.872;9.390;2023-04-05T11:42:09;98672.31;;;10.52;35.79
53719;BME280;39616;48.872;9.390;2023-04-05T11:44:46;98674.06;;;10.43;35.23
53719;BME280;39616;48.872;9.390;2023-04-05T11:47:18;98677.72;;;10.57;36.73
53719;BME280;39616;48.872;9.390;2023-04-05T11:49:52;98681.47;;;10.32;36.00
53719;BME280;39616;48.872;9.390;2023-04-05T11:52:22;98679.09;;;10.26;35.79
53719;BME280;39616;48.872;9.390;2023-04-05T11:54:52;98684.25;;;9.54;36.62
53719;BME280;39616;48.872;9.390;2023-04-05T11:57:23;98679.78;;;9.73;37.45
53719;BME280;39616;48.872;9.390;2023-04-05T11:59:54;98678.59;;;9.84;37.05
53719;BME280;39616;48.872;9.390;2023-04-05T12:02:24;98670.84;;;10.07;37.03
53719;BME280;39616;48.872;9.390;2023-04-05T12:04:56;98669.66;;;10.18;36.95
53719;BME280;39616;48.872;9.390;2023-04-05T12:07:27;98670.34;;;10.34;36.07
53719;BME280;39616;48.872;9.390;2023-04-05T12:10:09;98660.66;;;10.28;37.01
53719;BME280;39616;48.872;9.390;2023-04-05T12:12:43;98666.56;;;9.66;36.55
53719;BME280;39616;48.872;9.390;2023-04-05T12:15:14;98665.59;;;9.47;37.59
53719;BME280;39616;48.872;9.390;2023-04-05T12:17:49;98668.03;;;9.49;36.51
53719;BME280;39616;48.872;9.390;2023-04-05T12:20:22;98657.09;;;9.98;35.55
53719;BME280;39616;48.872;9.390;2023-04-05T12:22:55;98649.06;;;10.17;35.76
53719;BME280;39616;48.872;9.390;2023-04-05T12:25:25;98639.78;;;10.23;35.24
53719;BME280;39616;48.872;9.390;2023-04-05T12:28:03;98642.44;;;10.33;36.16
53719;BME280;39616;48.872;9.390;2023-04-05T12:30:33;98638.09;;;10.03;35.43
53719;BME280;39616;48.872;9.390;2023-04-05T12:33:07;98637.84;;;10.58;36.09
53719;BME280;39616;48.872;9.390;2023-04-05T12:35:38;98635.00;;;10.15;36.43
53719;BME280;39616;48.872;9.390;2023-04-05T12:38:08;98638.09;;;10.03;36.82
53719;BME280;39616;48.872;9.390;2023-04-05T12:40:39;98641.50;;;9.46;37.21
53719;BME280;39616;48.872;9.390;2023-04-05T12:43:11;98642.50;;;9.21;37.05
53719;BME280;39616;48.872;9.390;2023-04-05T12:45:48;98636.75;;;9.66;37.22
53719;BME280;39616;48.872;9.390;2023-04-05T12:48:23;98632.91;;;10.07;37.13
53719;BME280;39616;48.872;9.390;2023-04-05T12:50:56;98632.13;;;9.72;37.83
53719;BME280;39616;48.872;9.390;2023-04-05T12:53:26;98622.13;;;9.33;38.73
53719;BME280;39616;48.872;9.390;2023-04-05T12:55:57;98627.16;;;9.45;37.64
53719;BME280;39616;48.872;9.390;2023-04-05T12:58:33;98616.09;;;9.02;37.91
53719;BME280;39616;48.872;9.390;2023-04-05T13:01:04;98616.75;;;8.74;38.96
53719;BME280;39616;48.872;9.390;2023-04-05T13:03:34;98612.84;;;9.44;38.68
53719;BME280;39616;48.872;9.390;2023-04-05T13:06:04;98611.66;;;9.56;37.08
53719;BME280;39616;48.872;9.390;2023-04-05T13:08:35;98614.75;;;9.44;36.96
53719;BME280;39616;48.872;9.390;2023-04-05T13:11:05;98611.16;;;9.09;37.58
53719;BME280;39616;48.872;9.390;2023-04-05T13:13:35;98609.19;;;9.25;38.04
53719;BME280;39616;48.872;9.390;2023-04-05T13:16:06;98607.28;;;9.26;38.41
53719;BME280;39616;48.872;9.390;2023-04-05T13:18:36;98604.53;;;9.70;38.96
53719;BME280;39616;48.872;9.390;2023-04-05T13:21:06;98596.78;;;9.87;38.64
53719;BME280;39616;48.872;9.390;2023-04-05T13:23:39;98611.09;;;9.59;37.39
53719;BME280;39616;48.872;9.390;2023-04-05T13:26:10;98606.53;;;9.15;38.32
53719;BME280;39616;48.872;9.390;2023-04-05T13:28:40;98599.13;;;9.31;37.75
53719;BME280;39616;48.872;9.390;2023-04-05T13:31:11;98603.72;;;9.30;37.48
53719;BME280;39616;48.872;9.390;2023-04-05T13:33:41;98592.16;;;9.19;37.96
53719;BME280;39616;48.872;9.390;2023-04-05T13:36:11;98594.75;;;8.95;39.47
53719;BME280;39616;48.872;9.390;2023-04-05T13:38:42;98587.31;;;9.16;37.76
53719;BME280;39616;48.872;9.390;2023-04-05T13:41:12;98585.41;;;9.85;38.40
53719;BME280;39616;48.872;9.390;2023-04-05T13:43:44;98584.53;;;10.48;37.28
53719;BME280;39616;48.872;9.390;2023-04-05T13:46:15;98567.66;;;10.75;35.65
53719;BME280;39616;48.872;9.390;2023-04-05T13:48:45;98570.31;;;10.56;35.46
53719;BME280;39616;48.872;9.390;2023-04-05T13:51:15;98573.78;;;10.38;35.25